sensor_id;sensor_type;location;lat;lon;timestamp;pressure;altitude;pressure_sealevel;temperature;humidity
11114;BME280;5610;52.154;9.198;2023-04-30T00:01:40;101433.50;;;9.34;100.00
11114;BME280;5610;52.154;9.198;2023-04-30T00:04:26;101430.03;;;9.32;100.00
11114;BME280;5610;52.154;9.198;2023-04-30T00:07:11;101432.34;;;9.40;100.00
11114;BME280;5610;52.154;9.198;2023-04-30T00:09:57;101421.56;;;9.43;100.00
11114;BME280;5610;52.154;9.198;2023-04-30T00:12:42;101433.88;;;9.45;100.00
11114;BME280;5610;52.154;9.198;2023-04-30T00:15:28;101430.16;;;9.49;100.00
11114;BME280;5610;52.154;9.198;2023-04-30T00:18:14;101431.94;;;9.49;100.00
11114;BME280;5610;52.154;9.198;2023-04-30T00:20:59;101425.50;;;9.54;100.00
11114;BME280;5610;52.154;9.198;2023-04-30T00:23:44;101431.88;;;9.50;100.00
11114;BME280;5610;52.154;9.198;2023-04-30T00:26:29;101433.75;;;9.48;100.00
11114;BME280;5610;52.154;9.198;2023-04-30T00:29:15;101442.41;;;9.33;100.00
11114;BME280;5610;52.154;9.198;2023-04-30T00:32:01;101445.13;;;9.31;100.00
11114;BME280;5610;52.154;9.198;2023-04-30T00:34:46;101441.81;;;9.26;100.00
11114;BME280;5610;52.154;9.198;2023-04-30T00:37:32;101442.22;;;9.17;100.00
11114;BME280;5610;52.154;9.198;2023-04-30T00:40:17;101447.72;;;9.13;100.00
11114;BME280;5610;52.154;9.198;2023-04-30T00:43:02;101449.50;;;9.12;100.00
11114;BME280;5610;52.154;9.198;2023-04-30T00:45:47;101452.34;;;9.07;100.00
11114;BME280;5610;52.154;9.198;2023-04-30T00:48:34;101459.38;;;9.08;100.00
11114;BME280;5610;52.154;9.198;2023-04-30T00:51:19;101456.09;;;9.03;100.00
11114;BME280;5610;52.154;9.198;2023-04-30T00:54:05;101459.72;;;9.01;100.00
11114;BME280;5610;52.154;9.198;2023-04-30T00:56:51;101458.84;;;9.00;100.00
11114;BME280;5610;52.154;9.198;2023-04-30T00:59:37;101450.78;;;9.03;100.00
11114;BME280;5610;52.154;9.198;2023-04-30T01:02:23;101460.66;;;9.00;100.00
11114;BME280;5610;52.154;9.198;2023-04-30T01:05:09;101459.97;;;8.95;100.00
11114;BME280;5610;52.154;9.198;2023-04-30T01:07:55;101468.47;;;8.83;100.00
11114;BME280;5610;52.154;9.198;2023-04-30T01:10:46;101464.19;;;8.78;100.00
11114;BME280;5610;52.154;9.198;2023-04-30T01:13:38;101467.06;;;8.74;100.00
11114;BME280;5610;52.154;9.198;2023-04-30T01:16:26;101471.78;;;8.66;100.00
11114;BME280;5610;52.154;9.198;2023-04-30T01:19:23;101470.53;;;8.54;100.00
11114;BME280;5610;52.154;9.198;2023-04-30T01:22:29;101467.09;;;8.50;100.00
11114;BME280;5610;52.154;9.198;2023-04-30T01:25:28;101475.50;;;8.40;100.00
11114;BME280;5610;52.154;9.198;2023-04-30T01:28:21;101476.56;;;8.34;100.00
11114;BME280;5610;52.154;9.198;2023-04-30T01:31:12;101473.34;;;8.26;100.00
11114;BME280;5610;52.154;9.198;2023-04-30T01:33:58;101477.97;;;8.21;100.00
11114;BME280;5610;52.154;9.198;2023-04-30T01:36:51;101474.19;;;8.05;100.00
11114;BME280;5610;52.154;9.198;2023-04-30T01:39:53;101478.16;;;7.93;100.00
11114;BME280;5610;52.154;9.198;2023-04-30T01:42:49;101485.69;;;7.80;100.00
11114;BME280;5610;52.154;9.198;2023-04-30T01:45:47;101482.66;;;7.66;100.00
11114;BME280;5610;52.154;9.198;2023-04-30T01:48:41;101480.50;;;7.52;100.00
11114;BME280;5610;52.154;9.198;2023-04-30T01:51:30;101479.72;;;7.50;100.00
11114;BME280;5610;52.154;9.198;2023-04-30T01:54:20;101480.97;;;7.40;100.00
11114;BME280;5610;52.154;9.198;2023-04-30T01:57:13;101481.13;;;7.35;100.00
11114;BME280;5610;52.154;9.198;2023-04-30T02:00:00;101487.56;;;7.28;100.00
11114;BME280;5610;52.154;9.198;2023-04-30T02:02:47;101486.97;;;7.19;100.00
11114;BME280;5610;52.154;9.198;2023-04-30T02:05:33;101497.84;;;7.11;100.00
11114;BME280;5610;52.154;9.198;2023-04-30T02:08:18;101493.91;;;6.98;100.00
11114;BME280;5610;52.154;9.198;2023-04-30T02:11:03;101499.41;;;6.90;100.00
11114;BME280;5610;52.154;9.198;2023-04-30T02:13:49;101501.13;;;6.93;100.00
11114;BME280;5610;52.154;9.198;2023-04-30T02:16:34;101498.75;;;6.83;100.00
11114;BME280;5610;52.154;9.198;2023-04-30T02:19:20;101500.53;;;6.83;100.00
11114;BME280;5610;52.154;9.198;2023-04-30T02:22:06;101498.06;;;6.78;100.00
11114;BME280;5610;52.154;9.198;2023-04-30T02:24:52;101500.69;;;6.78;100.00
11114;BME280;5610;52.154;9.198;2023-04-30T02:27:38;101499.84;;;6.76;100.00
11114;BME280;5610;52.154;9.198;2023-04-30T02:30:24;101500.09;;;6.69;100.00
11114;BME280;5610;52.154;9.198;2023-04-30T02:33:09;101501.28;;;6.60;100.00
11114;BME280;5610;52.154;9.198;2023-04-30T02:35:58;101508.34;;;6.59;100.00
11114;BME280;5610;52.154;9.198;2023-04-30T02:38:43;101506.56;;;6.60;100.00
11114;BME280;5610;52.154;9.198;2023-04-30T02:41:28;101513.69;;;6.58;100.00
11114;BME280;5610;52.154;9.198;2023-04-30T02:44:14;101524.59;;;6.47;100.00
11114;BME280;5610;52.154;9.198;2023-04-30T02:46:59;101516.63;;;6.49;100.00
11114;BME280;5610;52.154;9.198;2023-04-30T02:49:45;101508.81;;;6.44;100.00
11114;BME280;5610;52.154;9.198;2023-04-30T02:52:32;101516.31;;;6.30;100.00
11114;BME280;5610;52.154;9.198;2023-04-30T02:55:17;101516.38;;;6.28;100.00
11114;BME280;5610;52.154;9.198;2023-04-30T02:58:02;101518.34;;;6.22;100.00
11114;BME280;5610;52.154;9.198;2023-04-30T03:00:47;101517.59;;;6.17;100.00
11114;BME280;5610;52.154;9.198;2023-04-30T03:03:32;101512.53;;;6.09;100.00
11114;BME280;5610;52.154;9.198;2023-04-30T03:06:17;101519.72;;;6.04;100.00
11114;BME280;5610;52.154;9.198;2023-04-30T03:09:04;101517.19;;;6.01;100.00
11114;BME280;5610;52.154;9.198;2023-04-30T03:11:50;101524.31;;;5.97;100.00
11114;BME280;5610;52.154;9.198;2023-04-30T03:14:35;101523.41;;;5.98;100.00
11114;BME280;5610;52.154;9.198;2023-04-30T03:17:20;101523.72;;;5.86;100.00
11114;BME280;5610;52.154;9.198;2023-04-30T03:20:07;101517.53;;;5.87;100.00
11114;BME280;5610;52.154;9.198;2023-04-30T03:22:52;101515.91;;;5.82;100.00
11114;BME280;5610;52.154;9.198;2023-04-30T03:25:39;101522.25;;;5.76;100.00
11114;BME280;5610;52.154;9.198;2023-04-30T03:28:24;101523.31;;;5.69;100.00
11114;BME280;5610;52.154;9.198;2023-04-30T03:31:09;101525.72;;;5.78;100.00
11114;BME280;5610;52.154;9.198;2023-04-30T03:33:54;101526.72;;;5.74;100.00
11114;BME280;5610;52.154;9.198;2023-04-30T03:36:39;101532.16;;;5.68;100.00
11114;BME280;5610;52.154;9.198;2023-04-30T03:39:24;101529.47;;;5.71;100.00
11114;BME280;5610;52.154;9.198;2023-04-30T03:42:11;101534.59;;;5.75;100.00
11114;BME280;5610;52.154;9.198;2023-04-30T03:44:56;101538.97;;;5.76;100.00
11114;BME280;5610;52.154;9.198;2023-04-30T03:47:41;101536.75;;;5.61;100.00
11114;BME280;5610;52.154;9.198;2023-04-30T03:50:26;101534.22;;;5.57;100.00
11114;BME280;5610;52.154;9.198;2023-04-30T03:53:12;101542.94;;;5.60;100.00
11114;BME280;5610;52.154;9.198;2023-04-30T03:55:57;101539.84;;;5.44;100.00
11114;BME280;5610;52.154;9.198;2023-04-30T03:58:45;101535.22;;;5.53;100.00
11114;BME280;5610;52.154;9.198;2023-04-30T04:01:30;101538.63;;;5.56;100.00
11114;BME280;5610;52.154;9.198;2023-04-30T04:04:16;101542.41;;;5.47;100.00
11114;BME280;5610;52.154;9.198;2023-04-30T04:07:01;101535.28;;;5.51;100.00
11114;BME280;5610;52.154;9.198;2023-04-30T04:09:47;101542.16;;;5.57;100.00
11114;BME280;5610;52.154;9.198;2023-04-30T04:12:32;101544.06;;;5.51;100.00
11114;BME280;5610;52.154;9.198;2023-04-30T04:15:19;101549.34;;;5.51;100.00
11114;BME280;5610;52.154;9.198;2023-04-30T04:18:04;101549.22;;;5.56;100.00
11114;BME280;5610;52.154;9.198;2023-04-30T04:20:53;101541.41;;;5.51;100.00
11114;BME280;5610;52.154;9.198;2023-04-30T04:23:39;101548.22;;;5.60;100.00
11114;BME280;5610;52.154;9.198;2023-04-30T04:26:24;101546.41;;;5.62;100.00
11114;BME280;5610;52.154;9.198;2023-04-30T04:29:11;101549.69;;;5.72;100.00
11114;BME280;5610;52.154;9.198;2023-04-30T04:31:59;101548.72;;;5.74;100.00
11114;BME280;5610;52.154;9.198;2023-04-30T04:34:46;101553.16;;;5.74;100.00
11114;BME280;5610;52.154;9.198;2023-04-30T04:37:33;101560.84;;;5.83;100.00
11114;BME280;5610;52.154;9.198;2023-04-30T04:40:19;101559.75;;;5.92;100.00
11114;BME280;5610;52.154;9.198;2023-04-30T04:43:04;101557.03;;;5.95;100.00
11114;BME280;5610;52.154;9.198;2023-04-30T04:45:49;101561.19;;;6.03;100.00
11114;BME280;5610;52.154;9.198;2023-04-30T04:48:36;101555.19;;;5.97;100.00
11114;BME280;5610;52.154;9.198;2023-04-30T04:51:22;101563.09;;;5.98;100.00
11114;BME280;5610;52.154;9.198;2023-04-30T04:54:07;101565.44;;;6.09;100.00
11114;BME280;5610;52.154;9.198;2023-04-30T04:56:52;101565.16;;;6.18;100.00
11114;BME280;5610;52.154;9.198;2023-04-30T04:59:37;101569.53;;;6.21;100.00
11114;BME280;5610;52.154;9.198;2023-04-30T05:02:22;101569.44;;;6.24;100.00
11114;BME280;5610;52.154;9.198;2023-04-30T05:05:10;101570.16;;;6.29;100.00
11114;BME280;5610;52.154;9.198;2023-04-30T05:07:55;101573.50;;;6.36;100.00
11114;BME280;5610;52.154;9.198;2023-04-30T05:10:40;101567.19;;;6.40;100.00
11114;BME280;5610;52.154;9.198;2023-04-30T05:13:25;101568.75;;;6.47;100.00
11114;BME280;5610;52.154;9.198;2023-04-30T05:16:10;101572.94;;;6.55;100.00
11114;BME280;5610;52.154;9.198;2023-04-30T05:18:55;101575.28;;;6.65;100.00
11114;BME280;5610;52.154;9.198;2023-04-30T05:21:41;101585.66;;;6.72;100.00
11114;BME280;5610;52.154;9.198;2023-04-30T05:24:27;101587.25;;;6.78;100.00
11114;BME280;5610;52.154;9.198;2023-04-30T05:27:12;101586.97;;;6.87;100.00
11114;BME280;5610;52.154;9.198;2023-04-30T05:29:59;101592.16;;;6.90;100.00
11114;BME280;5610;52.154;9.198;2023-04-30T05:32:45;101583.88;;;7.01;100.00
11114;BME280;5610;52.154;9.198;2023-04-30T05:35:33;101584.44;;;7.10;100.00
11114;BME280;5610;52.154;9.198;2023-04-30T05:38:20;101586.88;;;7.16;100.00
11114;BME280;5610;52.154;9.198;2023-04-30T05:41:06;101592.13;;;7.20;100.00
11114;BME280;5610;52.154;9.198;2023-04-30T05:43:51;101590.03;;;7.29;100.00
11114;BME280;5610;52.154;9.198;2023-04-30T05:46:36;101590.63;;;7.37;100.00
11114;BME280;5610;52.154;9.198;2023-04-30T05:49:21;101591.22;;;7.46;100.00
11114;BME280;5610;52.154;9.198;2023-04-30T05:52:07;101585.66;;;7.55;100.00
11114;BME280;5610;52.154;9.198;2023-04-30T05:54:53;101583.59;;;7.63;100.00
11114;BME280;5610;52.154;9.198;2023-04-30T05:57:38;101578.94;;;7.69;100.00
11114;BME280;5610;52.154;9.198;2023-04-30T06:00:24;101583.06;;;7.78;100.00
11114;BME280;5610;52.154;9.198;2023-04-30T06:03:09;101579.31;;;7.84;100.00
11114;BME280;5610;52.154;9.198;2023-04-30T06:05:54;101580.66;;;7.70;100.00
11114;BME280;5610;52.154;9.198;2023-04-30T06:08:39;101592.16;;;7.71;100.00
11114;BME280;5610;52.154;9.198;2023-04-30T06:11:29;101586.25;;;7.88;100.00
11114;BME280;5610;52.154;9.198;2023-04-30T06:14:15;101583.38;;;7.94;100.00
11114;BME280;5610;52.154;9.198;2023-04-30T06:17:01;101581.16;;;8.07;100.00
11114;BME280;5610;52.154;9.198;2023-04-30T06:19:46;101586.06;;;8.17;100.00
11114;BME280;5610;52.154;9.198;2023-04-30T06:22:31;101583.41;;;8.17;100.00
11114;BME280;5610;52.154;9.198;2023-04-30T06:25:16;101585.81;;;8.25;100.00
11114;BME280;5610;52.154;9.198;2023-04-30T06:28:04;101586.84;;;8.46;100.00
11114;BME280;5610;52.154;9.198;2023-04-30T06:30:50;101600.38;;;8.38;100.00
11114;BME280;5610;52.154;9.198;2023-04-30T06:33:37;101595.53;;;8.49;100.00
11114;BME280;5610;52.154;9.198;2023-04-30T06:36:22;101595.00;;;8.63;100.00
11114;BME280;5610;52.154;9.198;2023-04-30T06:39:08;101596.22;;;8.78;100.00
11114;BME280;5610;52.154;9.198;2023-04-30T06:41:53;101606.78;;;8.79;100.00
11114;BME280;5610;52.154;9.198;2023-04-30T06:44:40;101602.72;;;8.93;100.00
11114;BME280;5610;52.154;9.198;2023-04-30T06:47:25;101609.09;;;9.11;100.00
11114;BME280;5610;52.154;9.198;2023-04-30T06:50:11;101599.66;;;8.80;100.00
11114;BME280;5610;52.154;9.198;2023-04-30T06:52:58;101606.06;;;8.98;100.00
11114;BME280;5610;52.154;9.198;2023-04-30T06:55:44;101611.44;;;8.96;100.00
11114;BME280;5610;52.154;9.198;2023-04-30T06:58:29;101611.56;;;9.15;100.00
11114;BME280;5610;52.154;9.198;2023-04-30T07:01:16;101617.94;;;9.33;100.00
11114;BME280;5610;52.154;9.198;2023-04-30T07:04:01;101619.44;;;9.40;100.00
11114;BME280;5610;52.154;9.198;2023-04-30T07:06:46;101620.91;;;9.47;100.00
11114;BME280;5610;52.154;9.198;2023-04-30T07:09:31;101628.72;;;9.52;100.00
11114;BME280;5610;52.154;9.198;2023-04-30T07:12:17;101619.56;;;9.57;100.00
11114;BME280;5610;52.154;9.198;2023-04-30T07:15:02;101619.06;;;9.70;100.00
11114;BME280;5610;52.154;9.198;2023-04-30T07:17:49;101609.56;;;9.84;100.00
11114;BME280;5610;52.154;9.198;2023-04-30T07:20:34;101620.56;;;9.97;100.00
11114;BME280;5610;52.154;9.198;2023-04-30T07:23:19;101616.00;;;10.19;100.00
11114;BME280;5610;52.154;9.198;2023-04-30T07:26:05;101623.22;;;10.38;100.00
11114;BME280;5610;52.154;9.198;2023-04-30T07:28:50;101611.88;;;10.53;100.00
11114;BME280;5610;52.154;9.198;2023-04-30T07:31:35;101614.44;;;10.55;100.00
11114;BME280;5610;52.154;9.198;2023-04-30T07:34:21;101615.56;;;10.51;100.00
11114;BME280;5610;52.154;9.198;2023-04-30T07:37:07;101610.66;;;10.79;100.00
11114;BME280;5610;52.154;9.198;2023-04-30T07:39:52;101616.63;;;11.03;100.00
11114;BME280;5610;52.154;9.198;2023-04-30T07:42:38;101613.50;;;11.12;100.00
11114;BME280;5610;52.154;9.198;2023-04-30T07:45:23;101615.50;;;11.26;100.00
11114;BME280;5610;52.154;9.198;2023-04-30T07:48:09;101612.19;;;11.57;100.00
11114;BME280;5610;52.154;9.198;2023-04-30T07:50:55;101610.97;;;11.81;100.00
11114;BME280;5610;52.154;9.198;2023-04-30T07:53:41;101608.84;;;12.05;100.00
11114;BME280;5610;52.154;9.198;2023-04-30T07:56:26;101613.41;;;12.21;100.00
11114;BME280;5610;52.154;9.198;2023-04-30T07:59:11;101617.69;;;12.41;97.38
11114;BME280;5610;52.154;9.198;2023-04-30T08:01:56;101607.09;;;12.55;93.73
11114;BME280;5610;52.154;9.198;2023-04-30T08:04:42;101603.81;;;12.65;90.48
11114;BME280;5610;52.154;9.198;2023-04-30T08:07:28;101606.50;;;12.81;92.78
11114;BME280;5610;52.154;9.198;2023-04-30T08:10:13;101608.69;;;12.90;83.70
11114;BME280;5610;52.154;9.198;2023-04-30T08:12:59;101615.78;;;12.91;83.62
11114;BME280;5610;52.154;9.198;2023-04-30T08:15:44;101613.78;;;12.95;89.21
11114;BME280;5610;52.154;9.198;2023-04-30T08:18:29;101612.09;;;13.26;85.98
11114;BME280;5610;52.154;9.198;2023-04-30T08:21:15;101608.22;;;13.45;83.57
11114;BME280;5610;52.154;9.198;2023-04-30T08:24:03;101614.28;;;13.49;82.76
11114;BME280;5610;52.154;9.198;2023-04-30T08:26:48;101607.16;;;13.64;79.12
11114;BME280;5610;52.154;9.198;2023-04-30T08:29:33;101608.66;;;13.84;79.07
11114;BME280;5610;52.154;9.198;2023-04-30T08:32:18;101606.66;;;13.57;75.25
11114;BME280;5610;52.154;9.198;2023-04-30T08:35:05;101606.13;;;13.66;76.42
11114;BME280;5610;52.154;9.198;2023-04-30T08:37:50;101612.94;;;13.72;76.54
11114;BME280;5610;52.154;9.198;2023-04-30T08:40:39;101615.25;;;13.78;77.99
11114;BME280;5610;52.154;9.198;2023-04-30T08:43:24;101609.28;;;13.43;74.36
11114;BME280;5610;52.154;9.198;2023-04-30T08:46:10;101611.66;;;13.93;75.28
11114;BME280;5610;52.154;9.198;2023-04-30T08:48:57;101608.25;;;14.20;70.13
11114;BME280;5610;52.154;9.198;2023-04-30T08:51:42;101617.22;;;14.49;71.52
11114;BME280;5610;52.154;9.198;2023-04-30T08:54:29;101603.66;;;14.79;70.92
11114;BME280;5610;52.154;9.198;2023-04-30T08:57:17;101602.75;;;15.07;70.59
11114;BME280;5610;52.154;9.198;2023-04-30T09:00:03;101601.56;;;15.25;70.42
11114;BME280;5610;52.154;9.198;2023-04-30T09:02:48;101603.13;;;15.42;67.25
11114;BME280;5610;52.154;9.198;2023-04-30T09:05:35;101596.47;;;15.48;66.66
11114;BME280;5610;52.154;9.198;2023-04-30T09:08:41;101595.06;;;15.69;66.34
11114;BME280;5610;52.154;9.198;2023-04-30T09:11:29;101592.31;;;15.56;62.90
11114;BME280;5610;52.154;9.198;2023-04-30T09:14:22;101595.31;;;15.79;62.56
11114;BME280;5610;52.154;9.198;2023-04-30T09:17:08;101592.97;;;16.12;64.26
11114;BME280;5610;52.154;9.198;2023-04-30T09:19:53;101583.41;;;16.08;61.04
11114;BME280;5610;52.154;9.198;2023-04-30T09:22:40;101585.84;;;15.73;60.13
11114;BME280;5610;52.154;9.198;2023-04-30T09:25:37;101572.84;;;16.05;63.50
11114;BME280;5610;52.154;9.198;2023-04-30T09:28:23;101575.66;;;16.29;62.25
11114;BME280;5610;52.154;9.198;2023-04-30T09:31:19;101566.56;;;16.68;60.06
11114;BME280;5610;52.154;9.198;2023-04-30T09:34:04;101568.31;;;17.06;60.96
11114;BME280;5610;52.154;9.198;2023-04-30T09:36:53;101570.31;;;17.39;57.71
11114;BME280;5610;52.154;9.198;2023-04-30T09:39:46;101577.78;;;17.36;54.94
11114;BME280;5610;52.154;9.198;2023-04-30T09:42:32;101566.09;;;17.59;54.62
11114;BME280;5610;52.154;9.198;2023-04-30T09:45:18;101564.06;;;17.98;55.62
11114;BME280;5610;52.154;9.198;2023-04-30T09:48:05;101562.09;;;18.11;52.75
11114;BME280;5610;52.154;9.198;2023-04-30T09:50:52;101557.69;;;18.44;50.12
11114;BME280;5610;52.154;9.198;2023-04-30T09:53:37;101555.09;;;18.64;49.67
11114;BME280;5610;52.154;9.198;2023-04-30T09:56:24;101559.78;;;18.85;52.39
11114;BME280;5610;52.154;9.198;2023-04-30T09:59:10;101561.69;;;19.37;51.33
11114;BME280;5610;52.154;9.198;2023-04-30T10:01:58;101562.06;;;19.76;50.60
11114;BME280;5610;52.154;9.198;2023-04-30T10:04:52;101562.72;;;19.68;47.97
11114;BME280;5610;52.154;9.198;2023-04-30T10:07:39;101567.31;;;19.98;46.91
11114;BME280;5610;52.154;9.198;2023-04-30T10:10:25;101559.50;;;20.26;46.65
11114;BME280;5610;52.154;9.198;2023-04-30T10:13:14;101555.09;;;20.25;45.04
11114;BME280;5610;52.154;9.198;2023-04-30T10:16:06;101549.75;;;20.75;46.37
11114;BME280;5610;52.154;9.198;2023-04-30T10:18:53;101542.25;;;20.98;44.02
11114;BME280;5610;52.154;9.198;2023-04-30T10:21:41;101539.47;;;21.57;45.80
11114;BME280;5610;52.154;9.198;2023-04-30T10:24:29;101543.72;;;21.70;45.26
11114;BME280;5610;52.154;9.198;2023-04-30T10:27:15;101543.75;;;22.26;44.88
11114;BME280;5610;52.154;9.198;2023-04-30T10:30:01;101534.78;;;22.53;43.28
11114;BME280;5610;52.154;9.198;2023-04-30T10:32:50;101529.41;;;22.98;42.01
11114;BME280;5610;52.154;9.198;2023-04-30T10:35:44;101525.19;;;23.04;41.98
11114;BME280;5610;52.154;9.198;2023-04-30T10:38:35;101529.50;;;23.07;41.33
11114;BME280;5610;52.154;9.198;2023-04-30T10:41:21;101523.44;;;23.48;40.33
11114;BME280;5610;52.154;9.198;2023-04-30T10:44:08;101526.78;;;24.38;39.02
11114;BME280;5610;52.154;9.198;2023-04-30T10:46:57;101513.81;;;25.82;36.86
11114;BME280;5610;52.154;9.198;2023-04-30T10:49:44;101505.06;;;27.43;34.08
11114;BME280;5610;52.154;9.198;2023-04-30T10:52:30;101495.16;;;29.69;33.10
11114;BME280;5610;52.154;9.198;2023-04-30T10:55:17;101493.66;;;32.56;29.25
11114;BME280;5610;52.154;9.198;2023-04-30T10:58:22;101490.59;;;34.52;28.22
11114;BME280;5610;52.154;9.198;2023-04-30T11:01:11;101475.56;;;37.00;25.43
11114;BME280;5610;52.154;9.198;2023-04-30T11:04:04;101472.75;;;37.46;24.86
11114;BME280;5610;52.154;9.198;2023-04-30T11:07:07;101464.56;;;39.04;22.52
11114;BME280;5610;52.154;9.198;2023-04-30T11:09:56;101470.84;;;39.48;22.51
11114;BME280;5610;52.154;9.198;2023-04-30T11:12:48;101461.00;;;37.94;21.84
11114;BME280;5610;52.154;9.198;2023-04-30T11:15:38;101466.00;;;39.71;21.57
11114;BME280;5610;52.154;9.198;2023-04-30T11:18:26;101463.00;;;39.83;21.91
11114;BME280;5610;52.154;9.198;2023-04-30T11:21:12;101462.56;;;40.69;20.21
11114;BME280;5610;52.154;9.198;2023-04-30T11:24:03;101451.69;;;40.87;20.37
11114;BME280;5610;52.154;9.198;2023-04-30T11:27:04;101444.19;;;40.98;20.87
11114;BME280;5610;52.154;9.198;2023-04-30T11:29:52;101450.38;;;41.41;19.64
11114;BME280;5610;52.154;9.198;2023-04-30T11:32:38;101438.56;;;41.80;19.86
11114;BME280;5610;52.154;9.198;2023-04-30T11:35:23;101435.31;;;42.27;20.49
11114;BME280;5610;52.154;9.198;2023-04-30T11:38:11;101447.63;;;42.86;18.98
11114;BME280;5610;52.154;9.198;2023-04-30T11:40:57;101440.50;;;42.54;19.08
11114;BME280;5610;52.154;9.198;2023-04-30T11:43:43;101433.22;;;41.83;19.17
11114;BME280;5610;52.154;9.198;2023-04-30T11:46:30;101428.91;;;42.21;19.84
11114;BME280;5610;52.154;9.198;2023-04-30T11:49:15;101417.31;;;41.63;19.15
11114;BME280;5610;52.154;9.198;2023-04-30T11:52:00;101415.06;;;42.40;19.33
11114;BME280;5610;52.154;9.198;2023-04-30T11:54:45;101411.84;;;42.18;19.22
11114;BME280;5610;52.154;9.198;2023-04-30T11:57:34;101406.81;;;43.38;17.67
11114;BME280;5610;52.154;9.198;2023-04-30T12:00:20;101410.72;;;42.68;19.31
11114;BME280;5610;52.154;9.198;2023-04-30T12:03:07;101408.88;;;41.89;18.06
11114;BME280;5610;52.154;9.198;2023-04-30T12:05:52;101405.84;;;41.75;18.96
11114;BME280;5610;52.154;9.198;2023-04-30T12:08:40;101402.88;;;42.11;18.64
11114;BME280;5610;52.154;9.198;2023-04-30T12:11:26;101404.66;;;43.24;18.12
11114;BME280;5610;52.154;9.198;2023-04-30T12:14:11;101402.56;;;43.11;18.70
11114;BME280;5610;52.154;9.198;2023-04-30T12:16:58;101396.25;;;43.24;17.36
11114;BME280;5610;52.154;9.198;2023-04-30T12:19:45;101392.50;;;43.05;19.03
11114;BME280;5610;52.154;9.198;2023-04-30T12:22:30;101391.31;;;44.17;18.46
11114;BME280;5610;52.154;9.198;2023-04-30T12:25:18;101392.75;;;43.91;17.85
11114;BME280;5610;52.154;9.198;2023-04-30T12:28:03;101389.28;;;43.75;18.39
11114;BME280;5610;52.154;9.198;2023-04-30T12:30:48;101378.88;;;43.75;17.92
11114;BME280;5610;52.154;9.198;2023-04-30T12:33:34;101390.72;;;43.96;17.89
11114;BME280;5610;52.154;9.198;2023-04-30T12:36:21;101386.06;;;43.04;18.76
11114;BME280;5610;52.154;9.198;2023-04-30T12:39:07;101387.97;;;43.67;17.51
11114;BME280;5610;52.154;9.198;2023-04-30T12:41:53;101389.47;;;43.30;18.03
11114;BME280;5610;52.154;9.198;2023-04-30T12:44:42;101384.59;;;43.12;18.64
11114;BME280;5610;52.154;9.198;2023-04-30T12:47:28;101377.97;;;44.04;17.87
11114;BME280;5610;52.154;9.198;2023-04-30T12:50:14;101377.06;;;42.73;18.21
11114;BME280;5610;52.154;9.198;2023-04-30T12:53:02;101386.38;;;43.03;18.12
11114;BME280;5610;52.154;9.198;2023-04-30T12:56:15;101380.53;;;42.94;18.08
11114;BME280;5610;52.154;9.198;2023-04-30T12:59:00;101371.97;;;43.44;18.66
11114;BME280;5610;52.154;9.198;2023-04-30T13:01:46;101366.22;;;43.54;18.45
11114;BME280;5610;52.154;9.198;2023-04-30T13:04:31;101359.31;;;43.94;18.19
11114;BME280;5610;52.154;9.198;2023-04-30T13:07:16;101355.63;;;44.36;17.42
11114;BME280;5610;52.154;9.198;2023-04-30T13:10:03;101351.66;;;44.19;17.28
11114;BME280;5610;52.154;9.198;2023-04-30T13:12:52;101345.13;;;44.80;17.58
11114;BME280;5610;52.154;9.198;2023-04-30T13:15:37;101346.72;;;45.46;17.06
11114;BME280;5610;52.154;9.198;2023-04-30T13:18:23;101336.69;;;45.12;16.95
11114;BME280;5610;52.154;9.198;2023-04-30T13:21:08;101340.75;;;45.20;16.95
11114;BME280;5610;52.154;9.198;2023-04-30T13:23:53;101329.97;;;44.24;17.17
11114;BME280;5610;52.154;9.198;2023-04-30T13:26:40;101328.72;;;44.68;16.97
11114;BME280;5610;52.154;9.198;2023-04-30T13:29:25;101327.97;;;45.55;17.00
11114;BME280;5610;52.154;9.198;2023-04-30T13:32:10;101318.41;;;44.45;16.99
11114;BME280;5610;52.154;9.198;2023-04-30T13:34:56;101316.38;;;44.31;17.79
11114;BME280;5610;52.154;9.198;2023-04-30T13:37:41;101313.75;;;44.54;17.36
11114;BME280;5610;52.154;9.198;2023-04-30T13:40:26;101307.59;;;45.17;16.74
11114;BME280;5610;52.154;9.198;2023-04-30T13:43:13;101319.19;;;45.98;16.29
11114;BME280;5610;52.154;9.198;2023-04-30T13:45:58;101302.22;;;46.25;16.14
11114;BME280;5610;52.154;9.198;2023-04-30T13:48:44;101299.53;;;46.43;16.32
11114;BME280;5610;52.154;9.198;2023-04-30T13:51:31;101305.22;;;45.65;16.60
11114;BME280;5610;52.154;9.198;2023-04-30T13:54:16;101294.81;;;45.80;15.80
11114;BME280;5610;52.154;9.198;2023-04-30T13:57:02;101286.59;;;46.06;16.28
11114;BME280;5610;52.154;9.198;2023-04-30T13:59:50;101286.97;;;45.08;15.96
11114;BME280;5610;52.154;9.198;2023-04-30T14:02:35;101284.44;;;44.60;17.58
11114;BME280;5610;52.154;9.198;2023-04-30T14:05:20;101283.09;;;45.04;15.65
11114;BME280;5610;52.154;9.198;2023-04-30T14:08:05;101275.03;;;44.51;15.41
11114;BME280;5610;52.154;9.198;2023-04-30T14:10:51;101272.56;;;43.93;15.88
11114;BME280;5610;52.154;9.198;2023-04-30T14:13:36;101270.81;;;43.78;16.89
11114;BME280;5610;52.154;9.198;2023-04-30T14:16:24;101257.22;;;43.42;16.68
11114;BME280;5610;52.154;9.198;2023-04-30T14:19:09;101260.63;;;43.34;15.63
11114;BME280;5610;52.154;9.198;2023-04-30T14:21:54;101256.31;;;43.23;14.83
11114;BME280;5610;52.154;9.198;2023-04-30T14:24:40;101250.56;;;43.33;17.37
11114;BME280;5610;52.154;9.198;2023-04-30T14:27:26;101252.97;;;40.23;20.37
11114;BME280;5610;52.154;9.198;2023-04-30T14:30:11;101252.38;;;36.95;21.95
11114;BME280;5610;52.154;9.198;2023-04-30T14:32:58;101254.72;;;34.91;23.36
11114;BME280;5610;52.154;9.198;2023-04-30T14:35:44;101252.31;;;32.83;24.88
11114;BME280;5610;52.154;9.198;2023-04-30T14:38:30;101241.97;;;31.12;25.48
11114;BME280;5610;52.154;9.198;2023-04-30T14:41:15;101246.09;;;29.83;27.82
11114;BME280;5610;52.154;9.198;2023-04-30T14:44:00;101250.03;;;28.91;28.07